sensor_id;sensor_type;location;lat;lon;timestamp;temperature;humidity
12015;DHT22;6066;48.138;16.402;2024-02-26T00:01:02;5.10;99.90
12015;DHT22;6066;48.138;16.402;2024-02-26T00:03:31;5.00;99.90
12015;DHT22;6066;48.138;16.402;2024-02-26T00:06:01;5.00;99.90
12015;DHT22;6066;48.138;16.402;2024-02-26T00:08:28;4.90;99.90
12015;DHT22;6066;48.138;16.402;2024-02-26T00:10:55;4.80;99.90
12015;DHT22;6066;48.138;16.402;2024-02-26T00:13:24;4.70;99.90
12015;DHT22;6066;48.138;16.402;2024-02-26T00:15:51;4.70;99.90
12015;DHT22;6066;48.138;16.402;2024-02-26T00:18:17;4.60;99.90
12015;DHT22;6066;48.138;16.402;2024-02-26T00:20:44;4.60;99.90
12015;DHT22;6066;48.138;16.402;2024-02-26T00:23:11;4.50;99.90
12015;DHT22;6066;48.138;16.402;2024-02-26T00:25:38;4.50;99.90
12015;DHT22;6066;48.138;16.402;2024-02-26T00:28:05;4.50;99.90
12015;DHT22;6066;48.138;16.402;2024-02-26T00:30:33;4.40;99.90
12015;DHT22;6066;48.138;16.402;2024-02-26T00:33:00;4.40;99.90
12015;DHT22;6066;48.138;16.402;2024-02-26T00:35:27;4.30;99.90
12015;DHT22;6066;48.138;16.402;2024-02-26T00:37:54;4.30;99.90
12015;DHT22;6066;48.138;16.402;2024-02-26T00:40:20;4.30;99.90
12015;DHT22;6066;48.138;16.402;2024-02-26T00:42:47;4.30;99.90
12015;DHT22;6066;48.138;16.402;2024-02-26T00:45:14;4.30;99.90
12015;DHT22;6066;48.138;16.402;2024-02-26T00:47:43;4.30;99.90
12015;DHT22;6066;48.138;16.402;2024-02-26T00:50:10;4.30;99.90
12015;DHT22;6066;48.138;16.402;2024-02-26T00:52:37;4.20;99.90
12015;DHT22;6066;48.138;16.402;2024-02-26T00:55:04;4.20;99.90
12015;DHT22;6066;48.138;16.402;2024-02-26T00:57:31;4.10;99.90
12015;DHT22;6066;48.138;16.402;2024-02-26T00:59:58;4.10;99.90
12015;DHT22;6066;48.138;16.402;2024-02-26T01:02:26;4.10;99.90
12015;DHT22;6066;48.138;16.402;2024-02-26T01:04:54;4.00;99.90
12015;DHT22;6066;48.138;16.402;2024-02-26T01:07:20;4.00;99.90
12015;DHT22;6066;48.138;16.402;2024-02-26T01:09:47;3.90;99.90
12015;DHT22;6066;48.138;16.402;2024-02-26T01:12:14;3.80;99.90
12015;DHT22;6066;48.138;16.402;2024-02-26T01:14:41;3.70;99.90
12015;DHT22;6066;48.138;16.402;2024-02-26T01:17:07;3.70;99.90
12015;DHT22;6066;48.138;16.402;2024-02-26T01:19:34;3.60;99.90
12015;DHT22;6066;48.138;16.402;2024-02-26T01:22:03;3.50;99.90
12015;DHT22;6066;48.138;16.402;2024-02-26T01:24:29;3.50;99.90
12015;DHT22;6066;48.138;16.402;2024-02-26T01:26:56;3.40;99.90
12015;DHT22;6066;48.138;16.402;2024-02-26T01:29:23;3.40;99.90
12015;DHT22;6066;48.138;16.402;2024-02-26T01:31:50;3.40;99.90
12015;DHT22;6066;48.138;16.402;2024-02-26T01:34:16;3.30;99.90
12015;DHT22;6066;48.138;16.402;2024-02-26T01:36:44;3.30;99.90
12015;DHT22;6066;48.138;16.402;2024-02-26T01:39:12;3.40;99.90
12015;DHT22;6066;48.138;16.402;2024-02-26T01:41:39;3.30;99.90
12015;DHT22;6066;48.138;16.402;2024-02-26T01:44:06;3.30;99.90
12015;DHT22;6066;48.138;16.402;2024-02-26T01:46:34;3.30;99.90
12015;DHT22;6066;48.138;16.402;2024-02-26T01:49:01;3.30;99.90
12015;DHT22;6066;48.138;16.402;2024-02-26T01:51:28;3.20;99.90
12015;DHT22;6066;48.138;16.402;2024-02-26T01:53:55;3.20;99.90
12015;DHT22;6066;48.138;16.402;2024-02-26T01:56:23;3.30;99.90
12015;DHT22;6066;48.138;16.402;2024-02-26T01:58:53;3.30;99.90
12015;DHT22;6066;48.138;16.402;2024-02-26T02:01:22;3.30;99.90
12015;DHT22;6066;48.138;16.402;2024-02-26T02:03:49;3.30;99.90
12015;DHT22;6066;48.138;16.402;2024-02-26T02:06:15;3.20;99.90
12015;DHT22;6066;48.138;16.402;2024-02-26T02:08:42;3.20;99.90
12015;DHT22;6066;48.138;16.402;2024-02-26T02:11:09;3.10;99.90
12015;DHT22;6066;48.138;16.402;2024-02-26T02:13:38;3.10;99.90
12015;DHT22;6066;48.138;16.402;2024-02-26T02:16:05;3.00;99.90
12015;DHT22;6066;48.138;16.402;2024-02-26T02:18:32;3.00;99.90
12015;DHT22;6066;48.138;16.402;2024-02-26T02:21:01;3.00;99.90
12015;DHT22;6066;48.138;16.402;2024-02-26T02:23:28;3.10;99.90
12015;DHT22;6066;48.138;16.402;2024-02-26T02:25:54;3.10;99.90
12015;DHT22;6066;48.138;16.402;2024-02-26T02:28:22;3.10;99.90
12015;DHT22;6066;48.138;16.402;2024-02-26T02:30:49;3.10;99.90
12015;DHT22;6066;48.138;16.402;2024-02-26T02:33:16;3.00;99.90
12015;DHT22;6066;48.138;16.402;2024-02-26T02:35:42;2.90;99.90
12015;DHT22;6066;48.138;16.402;2024-02-26T02:38:11;2.90;99.90
12015;DHT22;6066;48.138;16.402;2024-02-26T02:40:37;2.80;99.90
12015;DHT22;6066;48.138;16.402;2024-02-26T02:43:04;2.80;99.90
12015;DHT22;6066;48.138;16.402;2024-02-26T02:45:31;2.80;99.90
12015;DHT22;6066;48.138;16.402;2024-02-26T02:48:02;2.80;99.90
12015;DHT22;6066;48.138;16.402;2024-02-26T02:50:28;2.80;99.90
12015;DHT22;6066;48.138;16.402;2024-02-26T02:52:55;2.80;99.90
12015;DHT22;6066;48.138;16.402;2024-02-26T02:55:23;2.80;99.90
12015;DHT22;6066;48.138;16.402;2024-02-26T02:57:50;2.90;99.90
12015;DHT22;6066;48.138;16.402;2024-02-26T03:00:17;3.10;99.90
12015;DHT22;6066;48.138;16.402;2024-02-26T03:02:44;3.30;99.90
12015;DHT22;6066;48.138;16.402;2024-02-26T03:05:11;3.50;99.90
12015;DHT22;6066;48.138;16.402;2024-02-26T03:07:38;3.70;99.90
12015;DHT22;6066;48.138;16.402;2024-02-26T03:10:04;3.90;99.90
12015;DHT22;6066;48.138;16.402;2024-02-26T03:12:33;4.10;99.90
12015;DHT22;6066;48.138;16.402;2024-02-26T03:15:00;4.10;99.90
12015;DHT22;6066;48.138;16.402;2024-02-26T03:17:28;4.20;99.90
12015;DHT22;6066;48.138;16.402;2024-02-26T03:19:55;4.30;99.90
12015;DHT22;6066;48.138;16.402;2024-02-26T03:22:22;4.40;99.90
12015;DHT22;6066;48.138;16.402;2024-02-26T03:24:48;4.40;99.90
12015;DHT22;6066;48.138;16.402;2024-02-26T03:27:15;4.40;99.90
12015;DHT22;6066;48.138;16.402;2024-02-26T03:29:43;4.50;99.90
12015;DHT22;6066;48.138;16.402;2024-02-26T03:32:10;4.50;99.90
12015;DHT22;6066;48.138;16.402;2024-02-26T03:34:37;4.40;99.90
12015;DHT22;6066;48.138;16.402;2024-02-26T03:37:05;4.50;99.90
12015;DHT22;6066;48.138;16.402;2024-02-26T03:39:33;4.50;99.90
12015;DHT22;6066;48.138;16.402;2024-02-26T03:41:59;4.50;99.90
12015;DHT22;6066;48.138;16.402;2024-02-26T03:44:26;4.50;99.90
12015;DHT22;6066;48.138;16.402;2024-02-26T03:46:54;4.50;99.90
12015;DHT22;6066;48.138;16.402;2024-02-26T03:49:21;4.60;99.90
12015;DHT22;6066;48.138;16.402;2024-02-26T03:51:48;4.70;99.90
12015;DHT22;6066;48.138;16.402;2024-02-26T03:54:15;4.80;99.90
12015;DHT22;6066;48.138;16.402;2024-02-26T03:56:42;4.90;99.90
12015;DHT22;6066;48.138;16.402;2024-02-26T03:59:08;5.00;99.90
12015;DHT22;6066;48.138;16.402;2024-02-26T04:01:35;5.10;99.90
12015;DHT22;6066;48.138;16.402;2024-02-26T04:04:03;5.10;99.90
12015;DHT22;6066;48.138;16.402;2024-02-26T04:06:30;5.10;99.90
12015;DHT22;6066;48.138;16.402;2024-02-26T04:08:57;5.10;99.90
12015;DHT22;6066;48.138;16.402;2024-02-26T04:11:24;5.10;99.90
12015;DHT22;6066;48.138;16.402;2024-02-26T04:13:50;5.00;99.90
12015;DHT22;6066;48.138;16.402;2024-02-26T04:16:17;5.00;99.90
12015;DHT22;6066;48.138;16.402;2024-02-26T04:18:44;4.90;99.90
12015;DHT22;6066;48.138;16.402;2024-02-26T04:21:12;4.90;99.90
12015;DHT22;6066;48.138;16.402;2024-02-26T04:23:39;4.90;99.90
12015;DHT22;6066;48.138;16.402;2024-02-26T04:26:06;4.90;99.90
12015;DHT22;6066;48.138;16.402;2024-02-26T04:28:33;4.90;99.90
12015;DHT22;6066;48.138;16.402;2024-02-26T04:30:59;4.80;99.90
12015;DHT22;6066;48.138;16.402;2024-02-26T04:33:27;4.80;99.90
12015;DHT22;6066;48.138;16.402;2024-02-26T04:35:53;4.70;99.90
12015;DHT22;6066;48.138;16.402;2024-02-26T04:38:22;4.70;99.90
12015;DHT22;6066;48.138;16.402;2024-02-26T04:40:48;4.60;99.90
12015;DHT22;6066;48.138;16.402;2024-02-26T04:43:15;4.70;99.90
12015;DHT22;6066;48.138;16.402;2024-02-26T04:45:43;4.70;99.90
12015;DHT22;6066;48.138;16.402;2024-02-26T04:48:10;4.70;99.90
12015;DHT22;6066;48.138;16.402;2024-02-26T04:50:37;4.60;99.90
12015;DHT22;6066;48.138;16.402;2024-02-26T04:53:03;4.60;99.90
12015;DHT22;6066;48.138;16.402;2024-02-26T04:55:32;4.60;99.90
12015;DHT22;6066;48.138;16.402;2024-02-26T04:57:59;4.60;99.90
12015;DHT22;6066;48.138;16.402;2024-02-26T05:00:25;4.50;99.90
12015;DHT22;6066;48.138;16.402;2024-02-26T05:02:52;4.40;99.90
12015;DHT22;6066;48.138;16.402;2024-02-26T05:05:19;4.30;99.90
12015;DHT22;6066;48.138;16.402;2024-02-26T05:07:46;4.30;99.90
12015;DHT22;6066;48.138;16.402;2024-02-26T05:10:12;4.20;99.90
12015;DHT22;6066;48.138;16.402;2024-02-26T05:12:40;4.10;99.90
12015;DHT22;6066;48.138;16.402;2024-02-26T05:15:08;4.00;99.90
12015;DHT22;6066;48.138;16.402;2024-02-26T05:17:35;3.90;99.90
12015;DHT22;6066;48.138;16.402;2024-02-26T05:20:02;3.80;99.90
12015;DHT22;6066;48.138;16.402;2024-02-26T05:22:29;3.80;99.90
12015;DHT22;6066;48.138;16.402;2024-02-26T05:24:56;3.70;99.90
12015;DHT22;6066;48.138;16.402;2024-02-26T05:27:23;3.60;99.90
12015;DHT22;6066;48.138;16.402;2024-02-26T05:29:51;3.60;99.90
12015;DHT22;6066;48.138;16.402;2024-02-26T05:32:19;3.60;99.90
12015;DHT22;6066;48.138;16.402;2024-02-26T05:34:46;3.70;99.90
12015;DHT22;6066;48.138;16.402;2024-02-26T05:37:13;3.60;99.90
12015;DHT22;6066;48.138;16.402;2024-02-26T05:39:39;3.70;99.90
12015;DHT22;6066;48.138;16.402;2024-02-26T05:42:06;3.70;99.90
12015;DHT22;6066;48.138;16.402;2024-02-26T05:44:34;3.60;99.90
12015;DHT22;6066;48.138;16.402;2024-02-26T05:47:02;3.60;99.90
12015;DHT22;6066;48.138;16.402;2024-02-26T05:49:29;3.60;99.90
12015;DHT22;6066;48.138;16.402;2024-02-26T05:51:56;3.60;99.90
12015;DHT22;6066;48.138;16.402;2024-02-26T05:54:23;3.60;99.90
12015;DHT22;6066;48.138;16.402;2024-02-26T05:56:50;3.60;99.90
12015;DHT22;6066;48.138;16.402;2024-02-26T05:59:17;3.70;99.90
12015;DHT22;6066;48.138;16.402;2024-02-26T06:01:44;3.70;99.90
12015;DHT22;6066;48.138;16.402;2024-02-26T06:04:12;3.70;99.90
12015;DHT22;6066;48.138;16.402;2024-02-26T06:06:39;3.80;99.90
12015;DHT22;6066;48.138;16.402;2024-02-26T06:09:05;3.80;99.90
12015;DHT22;6066;48.138;16.402;2024-02-26T06:11:32;3.80;99.90
12015;DHT22;6066;48.138;16.402;2024-02-26T06:13:59;3.80;99.90
12015;DHT22;6066;48.138;16.402;2024-02-26T06:16:26;3.80;99.90
12015;DHT22;6066;48.138;16.402;2024-02-26T06:18:53;3.80;99.90
12015;DHT22;6066;48.138;16.402;2024-02-26T06:21:21;3.90;99.90
12015;DHT22;6066;48.138;16.402;2024-02-26T06:23:47;3.90;99.90
12015;DHT22;6066;48.138;16.402;2024-02-26T06:26:14;4.00;99.90
12015;DHT22;6066;48.138;16.402;2024-02-26T06:28:41;4.10;99.90
12015;DHT22;6066;48.138;16.402;2024-02-26T06:31:08;4.10;99.90
12015;DHT22;6066;48.138;16.402;2024-02-26T06:33:35;4.30;99.90
12015;DHT22;6066;48.138;16.402;2024-02-26T06:36:02;4.40;99.90
12015;DHT22;6066;48.138;16.402;2024-02-26T06:38:31;4.50;99.90
12015;DHT22;6066;48.138;16.402;2024-02-26T06:40:58;4.50;99.90
12015;DHT22;6066;48.138;16.402;2024-02-26T06:43:24;4.50;99.90
12015;DHT22;6066;48.138;16.402;2024-02-26T06:45:51;4.60;99.90
12015;DHT22;6066;48.138;16.402;2024-02-26T06:48:18;4.70;99.90
12015;DHT22;6066;48.138;16.402;2024-02-26T06:50:45;4.80;99.90
12015;DHT22;6066;48.138;16.402;2024-02-26T06:53:11;4.80;99.90
12015;DHT22;6066;48.138;16.402;2024-02-26T06:55:40;4.90;99.90
12015;DHT22;6066;48.138;16.402;2024-02-26T06:58:07;4.90;99.90
12015;DHT22;6066;48.138;16.402;2024-02-26T07:00:34;4.90;99.90
12015;DHT22;6066;48.138;16.402;2024-02-26T07:03:01;5.00;99.90
12015;DHT22;6066;48.138;16.402;2024-02-26T07:05:28;5.10;99.90
12015;DHT22;6066;48.138;16.402;2024-02-26T07:07:55;5.20;99.90
12015;DHT22;6066;48.138;16.402;2024-02-26T07:10:22;5.20;99.90
12015;DHT22;6066;48.138;16.402;2024-02-26T07:12:50;5.30;99.90
12015;DHT22;6066;48.138;16.402;2024-02-26T07:15:17;5.40;99.90
12015;DHT22;6066;48.138;16.402;2024-02-26T07:17:44;5.40;99.90
12015;DHT22;6066;48.138;16.402;2024-02-26T07:20:12;5.40;99.90
12015;DHT22;6066;48.138;16.402;2024-02-26T07:22:39;5.50;99.90
12015;DHT22;6066;48.138;16.402;2024-02-26T07:25:07;5.60;99.90
12015;DHT22;6066;48.138;16.402;2024-02-26T07:27:38;5.70;99.90
12015;DHT22;6066;48.138;16.402;2024-02-26T07:30:07;5.80;99.90
12015;DHT22;6066;48.138;16.402;2024-02-26T07:32:34;5.90;99.90
12015;DHT22;6066;48.138;16.402;2024-02-26T07:35:01;6.00;99.90
12015;DHT22;6066;48.138;16.402;2024-02-26T07:37:28;6.10;99.90
12015;DHT22;6066;48.138;16.402;2024-02-26T07:39:55;6.20;99.90
12015;DHT22;6066;48.138;16.402;2024-02-26T07:42:21;6.20;99.90
12015;DHT22;6066;48.138;16.402;2024-02-26T07:44:48;6.30;99.90
12015;DHT22;6066;48.138;16.402;2024-02-26T07:47:16;6.40;99.90
12015;DHT22;6066;48.138;16.402;2024-02-26T07:49:43;6.50;99.90
12015;DHT22;6066;48.138;16.402;2024-02-26T07:52:10;6.60;99.90
12015;DHT22;6066;48.138;16.402;2024-02-26T07:54:37;6.80;99.90
12015;DHT22;6066;48.138;16.402;2024-02-26T07:57:03;6.80;99.90
12015;DHT22;6066;48.138;16.402;2024-02-26T07:59:31;6.90;99.90
12015;DHT22;6066;48.138;16.402;2024-02-26T08:01:58;6.90;99.90
12015;DHT22;6066;48.138;16.402;2024-02-26T08:04:27;7.00;99.90
12015;DHT22;6066;48.138;16.402;2024-02-26T08:06:54;7.10;99.90
12015;DHT22;6066;48.138;16.402;2024-02-26T08:09:21;7.10;99.90
12015;DHT22;6066;48.138;16.402;2024-02-26T08:11:47;7.20;99.90
12015;DHT22;6066;48.138;16.402;2024-02-26T08:14:14;7.20;99.90
12015;DHT22;6066;48.138;16.402;2024-02-26T08:16:41;7.30;99.90
12015;DHT22;6066;48.138;16.402;2024-02-26T08:19:07;7.40;99.90
12015;DHT22;6066;48.138;16.402;2024-02-26T08:21:36;7.60;99.90
12015;DHT22;6066;48.138;16.402;2024-02-26T08:24:04;7.70;99.90
12015;DHT22;6066;48.138;16.402;2024-02-26T08:26:30;7.70;99.90
12015;DHT22;6066;48.138;16.402;2024-02-26T08:28:57;7.80;99.90
12015;DHT22;6066;48.138;16.402;2024-02-26T08:31:26;7.90;99.90
12015;DHT22;6066;48.138;16.402;2024-02-26T08:33:53;8.00;99.90
12015;DHT22;6066;48.138;16.402;2024-02-26T08:36:19;8.00;99.90
12015;DHT22;6066;48.138;16.402;2024-02-26T08:38:48;8.20;99.90
12015;DHT22;6066;48.138;16.402;2024-02-26T08:41:15;8.30;99.90
12015;DHT22;6066;48.138;16.402;2024-02-26T08:43:47;8.40;99.90
12015;DHT22;6066;48.138;16.402;2024-02-26T08:46:14;8.50;99.90
12015;DHT22;6066;48.138;16.402;2024-02-26T08:48:41;8.50;99.90
12015;DHT22;6066;48.138;16.402;2024-02-26T08:51:08;8.60;99.90
12015;DHT22;6066;48.138;16.402;2024-02-26T08:53:35;8.70;99.90
12015;DHT22;6066;48.138;16.402;2024-02-26T08:56:04;8.70;99.90
12015;DHT22;6066;48.138;16.402;2024-02-26T08:58:31;8.70;99.90
12015;DHT22;6066;48.138;16.402;2024-02-26T09:00:58;8.80;99.90
12015;DHT22;6066;48.138;16.402;2024-02-26T09:03:24;8.90;99.90
12015;DHT22;6066;48.138;16.402;2024-02-26T09:05:51;9.00;99.90
12015;DHT22;6066;48.138;16.402;2024-02-26T09:08:18;9.10;99.90
12015;DHT22;6066;48.138;16.402;2024-02-26T09:10:45;9.30;99.90
12015;DHT22;6066;48.138;16.402;2024-02-26T09:13:13;9.40;99.90
12015;DHT22;6066;48.138;16.402;2024-02-26T09:15:41;9.50;99.90
12015;DHT22;6066;48.138;16.402;2024-02-26T09:18:07;9.60;99.90
12015;DHT22;6066;48.138;16.402;2024-02-26T09:20:35;9.70;99.90
12015;DHT22;6066;48.138;16.402;2024-02-26T09:23:04;9.80;99.90
12015;DHT22;6066;48.138;16.402;2024-02-26T09:25:30;9.90;99.90
12015;DHT22;6066;48.138;16.402;2024-02-26T09:27:58;10.00;99.90
12015;DHT22;6066;48.138;16.402;2024-02-26T09:30:28;10.10;99.90
12015;DHT22;6066;48.138;16.402;2024-02-26T09:32:54;10.20;99.90
12015;DHT22;6066;48.138;16.402;2024-02-26T09:35:21;10.30;99.90
12015;DHT22;6066;48.138;16.402;2024-02-26T09:37:48;10.40;99.90
12015;DHT22;6066;48.138;16.402;2024-02-26T09:40:15;10.50;99.90
12015;DHT22;6066;48.138;16.402;2024-02-26T09:42:43;10.60;99.90
12015;DHT22;6066;48.138;16.402;2024-02-26T09:45:11;10.60;99.90
12015;DHT22;6066;48.138;16.402;2024-02-26T09:47:39;10.60;99.90
12015;DHT22;6066;48.138;16.402;2024-02-26T09:50:06;10.70;99.90
12015;DHT22;6066;48.138;16.402;2024-02-26T09:52:37;10.90;99.90
12015;DHT22;6066;48.138;16.402;2024-02-26T09:55:04;10.90;99.90
12015;DHT22;6066;48.138;16.402;2024-02-26T09:57:33;10.90;99.90
12015;DHT22;6066;48.138;16.402;2024-02-26T10:00:03;11.00;99.90
12015;DHT22;6066;48.138;16.402;2024-02-26T10:02:34;11.10;99.90
12015;DHT22;6066;48.138;16.402;2024-02-26T10:05:06;11.10;99.90
12015;DHT22;6066;48.138;16.402;2024-02-26T10:07:34;11.20;99.90
12015;DHT22;6066;48.138;16.402;2024-02-26T10:10:01;11.20;99.90
12015;DHT22;6066;48.138;16.402;2024-02-26T10:12:28;11.10;99.90
12015;DHT22;6066;48.138;16.402;2024-02-26T10:14:56;11.10;99.90
12015;DHT22;6066;48.138;16.402;2024-02-26T10:17:23;11.20;99.90
12015;DHT22;6066;48.138;16.402;2024-02-26T10:19:50;11.20;99.90
12015;DHT22;6066;48.138;16.402;2024-02-26T10:22:24;11.30;99.90
12015;DHT22;6066;48.138;16.402;2024-02-26T10:24:53;11.30;99.90
12015;DHT22;6066;48.138;16.402;2024-02-26T10:27:20;11.40;99.90
12015;DHT22;6066;48.138;16.402;2024-02-26T10:29:47;11.30;99.90
12015;DHT22;6066;48.138;16.402;2024-02-26T10:32:14;11.40;99.90
12015;DHT22;6066;48.138;16.402;2024-02-26T10:34:40;11.50;99.90
12015;DHT22;6066;48.138;16.402;2024-02-26T10:37:08;11.50;99.90
12015;DHT22;6066;48.138;16.402;2024-02-26T10:39:38;11.60;99.90
12015;DHT22;6066;48.138;16.402;2024-02-26T10:42:05;11.60;99.90
12015;DHT22;6066;48.138;16.402;2024-02-26T10:44:35;11.70;99.90
12015;DHT22;6066;48.138;16.402;2024-02-26T10:47:02;11.70;99.90
12015;DHT22;6066;48.138;16.402;2024-02-26T10:49:28;11.80;99.90
12015;DHT22;6066;48.138;16.402;2024-02-26T10:51:57;11.90;99.90
12015;DHT22;6066;48.138;16.402;2024-02-26T10:54:25;11.90;99.90
12015;DHT22;6066;48.138;16.402;2024-02-26T10:56:54;12.00;99.90
12015;DHT22;6066;48.138;16.402;2024-02-26T10:59:22;12.00;99.90
12015;DHT22;6066;48.138;16.402;2024-02-26T11:01:49;12.10;99.90
12015;DHT22;6066;48.138;16.402;2024-02-26T11:04:16;12.20;99.90
12015;DHT22;6066;48.138;16.402;2024-02-26T11:06:46;12.30;99.90
12015;DHT22;6066;48.138;16.402;2024-02-26T11:09:14;12.40;99.90
12015;DHT22;6066;48.138;16.402;2024-02-26T11:11:41;12.60;99.90
12015;DHT22;6066;48.138;16.402;2024-02-26T11:14:13;12.70;99.90
12015;DHT22;6066;48.138;16.402;2024-02-26T11:16:40;12.90;99.90
12015;DHT22;6066;48.138;16.402;2024-02-26T11:19:09;13.00;99.90
12015;DHT22;6066;48.138;16.402;2024-02-26T11:21:37;12.90;99.90
12015;DHT22;6066;48.138;16.402;2024-02-26T11:24:08;13.00;99.90
12015;DHT22;6066;48.138;16.402;2024-02-26T11:26:38;13.00;99.90
12015;DHT22;6066;48.138;16.402;2024-02-26T11:29:07;13.10;99.90
12015;DHT22;6066;48.138;16.402;2024-02-26T11:31:41;13.20;99.90
12015;DHT22;6066;48.138;16.402;2024-02-26T11:34:08;13.20;99.90
12015;DHT22;6066;48.138;16.402;2024-02-26T11:36:36;13.40;99.90
12015;DHT22;6066;48.138;16.402;2024-02-26T11:39:04;13.40;99.90
12015;DHT22;6066;48.138;16.402;2024-02-26T11:41:31;13.40;99.90
12015;DHT22;6066;48.138;16.402;2024-02-26T11:44:00;13.40;99.90
12015;DHT22;6066;48.138;16.402;2024-02-26T11:46:29;13.30;99.90
12015;DHT22;6066;48.138;16.402;2024-02-26T11:49:01;13.20;99.90
12015;DHT22;6066;48.138;16.402;2024-02-26T11:51:32;13.20;99.90
12015;DHT22;6066;48.138;16.402;2024-02-26T11:54:01;13.20;99.90
12015;DHT22;6066;48.138;16.402;2024-02-26T11:56:29;13.20;99.90
12015;DHT22;6066;48.138;16.402;2024-02-26T11:59:03;13.10;99.90
12015;DHT22;6066;48.138;16.402;2024-02-26T12:01:36;13.00;99.90
12015;DHT22;6066;48.138;16.402;2024-02-26T12:04:04;13.10;99.90
12015;DHT22;6066;48.138;16.402;2024-02-26T12:06:40;13.20;99.90
12015;DHT22;6066;48.138;16.402;2024-02-26T12:09:13;13.30;99.90
12015;DHT22;6066;48.138;16.402;2024-02-26T12:11:40;13.40;99.90
12015;DHT22;6066;48.138;16.402;2024-02-26T12:14:13;13.50;99.90
12015;DHT22;6066;48.138;16.402;2024-02-26T12:16:40;13.50;99.90
12015;DHT22;6066;48.138;16.402;2024-02-26T12:19:09;13.60;99.90
12015;DHT22;6066;48.138;16.402;2024-02-26T12:21:40;13.60;99.90
12015;DHT22;6066;48.138;16.402;2024-02-26T12:24:09;13.80;99.90
12015;DHT22;6066;48.138;16.402;2024-02-26T12:26:41;13.90;99.90
12015;DHT22;6066;48.138;16.402;2024-02-26T12:29:08;14.00;99.90
12015;DHT22;6066;48.138;16.402;2024-02-26T12:31:35;14.00;99.90
12015;DHT22;6066;48.138;16.402;2024-02-26T12:34:02;13.90;99.90
12015;DHT22;6066;48.138;16.402;2024-02-26T12:36:31;13.90;99.90
12015;DHT22;6066;48.138;16.402;2024-02-26T12:38:57;13.80;99.90
12015;DHT22;6066;48.138;16.402;2024-02-26T12:41:27;13.80;99.90
12015;DHT22;6066;48.138;16.402;2024-02-26T12:43:55;13.80;99.90
12015;DHT22;6066;48.138;16.402;2024-02-26T12:46:24;13.90;99.90
12015;DHT22;6066;48.138;16.402;2024-02-26T12:48:50;14.00;99.90
12015;DHT22;6066;48.138;16.402;2024-02-26T12:51:17;14.10;99.90
12015;DHT22;6066;48.138;16.402;2024-02-26T12:53:48;14.20;99.90
12015;DHT22;6066;48.138;16.402;2024-02-26T12:56:17;14.20;99.90
12015;DHT22;6066;48.138;16.402;2024-02-26T12:58:44;14.20;99.90
12015;DHT22;6066;48.138;16.402;2024-02-26T13:01:14;14.20;99.90
12015;DHT22;6066;48.138;16.402;2024-02-26T13:03:41;14.10;99.90
12015;DHT22;6066;48.138;16.402;2024-02-26T13:06:09;13.90;99.90
12015;DHT22;6066;48.138;16.402;2024-02-26T13:08:37;13.80;99.90
12015;DHT22;6066;48.138;16.402;2024-02-26T13:11:05;13.60;99.90
12015;DHT22;6066;48.138;16.402;2024-02-26T13:13:36;13.50;99.90
12015;DHT22;6066;48.138;16.402;2024-02-26T13:16:04;13.40;99.90
12015;DHT22;6066;48.138;16.402;2024-02-26T13:18:32;13.50;99.90
12015;DHT22;6066;48.138;16.402;2024-02-26T13:21:11;13.50;99.90
12015;DHT22;6066;48.138;16.402;2024-02-26T13:23:38;13.50;99.90
12015;DHT22;6066;48.138;16.402;2024-02-26T13:26:07;13.50;99.90
12015;DHT22;6066;48.138;16.402;2024-02-26T13:28:34;13.50;99.90
12015;DHT22;6066;48.138;16.402;2024-02-26T13:31:01;13.30;99.90
12015;DHT22;6066;48.138;16.402;2024-02-26T13:33:30;13.30;99.90
12015;DHT22;6066;48.138;16.402;2024-02-26T13:35:57;13.30;99.90
12015;DHT22;6066;48.138;16.402;2024-02-26T13:38:29;13.50;99.90
12015;DHT22;6066;48.138;16.402;2024-02-26T13:40:55;13.50;99.90
12015;DHT22;6066;48.138;16.402;2024-02-26T13:43:24;13.50;99.90
12015;DHT22;6066;48.138;16.402;2024-02-26T13:45:50;13.40;99.90
12015;DHT22;6066;48.138;16.402;2024-02-26T13:48:17;13.30;99.90
12015;DHT22;6066;48.138;16.402;2024-02-26T13:50:44;13.30;99.90
12015;DHT22;6066;48.138;16.402;2024-02-26T13:53:11;13.20;99.90
12015;DHT22;6066;48.138;16.402;2024-02-26T13:55:37;13.20;99.90
12015;DHT22;6066;48.138;16.402;2024-02-26T13:58:05;13.20;99.90
12015;DHT22;6066;48.138;16.402;2024-02-26T14:00:36;13.20;99.90
12015;DHT22;6066;48.138;16.402;2024-02-26T14:03:03;13.10;99.90
12015;DHT22;6066;48.138;16.402;2024-02-26T14:05:30;13.20;99.90
12015;DHT22;6066;48.138;16.402;2024-02-26T14:07:58;13.30;99.90
12015;DHT22;6066;48.138;16.402;2024-02-26T14:10:24;13.30;99.90
12015;DHT22;6066;48.138;16.402;2024-02-26T14:12:51;13.30;99.90
12015;DHT22;6066;48.138;16.402;2024-02-26T14:15:18;13.40;99.90
12015;DHT22;6066;48.138;16.402;2024-02-26T14:17:46;13.50;99.90
12015;DHT22;6066;48.138;16.402;2024-02-26T14:20:18;13.60;99.90
12015;DHT22;6066;48.138;16.402;2024-02-26T14:22:45;13.80;99.90
12015;DHT22;6066;48.138;16.402;2024-02-26T14:25:11;13.90;99.90
12015;DHT22;6066;48.138;16.402;2024-02-26T14:27:38;13.80;99.90
12015;DHT22;6066;48.138;16.402;2024-02-26T14:30:07;13.80;99.90
12015;DHT22;6066;48.138;16.402;2024-02-26T14:32:34;13.70;99.90
12015;DHT22;6066;48.138;16.402;2024-02-26T14:35:05;13.70;99.90
12015;DHT22;6066;48.138;16.402;2024-02-26T14:37:35;13.70;99.90
12015;DHT22;6066;48.138;16.402;2024-02-26T14:40:02;13.50;99.90
12015;DHT22;6066;48.138;16.402;2024-02-26T14:42:30;13.50;99.90
12015;DHT22;6066;48.138;16.402;2024-02-26T14:44:57;13.50;99.90
12015;DHT22;6066;48.138;16.402;2024-02-26T14:47:25;13.40;99.90
12015;DHT22;6066;48.138;16.402;2024-02-26T14:49:51;13.30;99.90
12015;DHT22;6066;48.138;16.402;2024-02-26T14:52:21;13.10;99.90
12015;DHT22;6066;48.138;16.402;2024-02-26T14:54:48;13.00;99.90
12015;DHT22;6066;48.138;16.402;2024-02-26T14:57:16;12.90;99.90
12015;DHT22;6066;48.138;16.402;2024-02-26T14:59:43;12.70;99.90
12015;DHT22;6066;48.138;16.402;2024-02-26T15:02:10;12.50;99.90
12015;DHT22;6066;48.138;16.402;2024-02-26T15:04:39;12.40;99.90
12015;DHT22;6066;48.138;16.402;2024-02-26T15:07:05;12.30;99.90
12015;DHT22;6066;48.138;16.402;2024-02-26T15:09:35;12.10;99.90
12015;DHT22;6066;48.138;16.402;2024-02-26T15:12:03;12.00;99.90
12015;DHT22;6066;48.138;16.402;2024-02-26T15:14:32;11.90;99.90
12015;DHT22;6066;48.138;16.402;2024-02-26T15:16:58;11.80;99.90
12015;DHT22;6066;48.138;16.402;2024-02-26T15:19:28;11.70;99.90
12015;DHT22;6066;48.138;16.402;2024-02-26T15:21:55;11.60;99.90
12015;DHT22;6066;48.138;16.402;2024-02-26T15:24:22;11.50;99.90
12015;DHT22;6066;48.138;16.402;2024-02-26T15:26:50;11.50;99.90
12015;DHT22;6066;48.138;16.402;2024-02-26T15:29:17;11.40;99.90
12015;DHT22;6066;48.138;16.402;2024-02-26T15:31:44;11.40;99.90
12015;DHT22;6066;48.138;16.402;2024-02-26T15:34:10;11.40;99.90
12015;DHT22;6066;48.138;16.402;2024-02-26T15:36:39;11.30;99.90
12015;DHT22;6066;48.138;16.402;2024-02-26T15:39:07;11.30;99.90
12015;DHT22;6066;48.138;16.402;2024-02-26T15:41:33;11.20;99.90